sensor_id;sensor_type;location;lat;lon;timestamp;pressure;altitude;pressure_sealevel;temperature;humidity
11676;BME280;5894;42.768;23.404;2023-07-09T00:00:39;96039.53;;;18.75;100.00
11676;BME280;5894;42.768;23.404;2023-07-09T00:03:06;96042.13;;;18.71;100.00
11676;BME280;5894;42.768;23.404;2023-07-09T00:05:33;96040.91;;;18.68;100.00
11676;BME280;5894;42.768;23.404;2023-07-09T00:08:00;96038.59;;;18.67;100.00
11676;BME280;5894;42.768;23.404;2023-07-09T00:10:27;96040.81;;;18.65;100.00
11676;BME280;5894;42.768;23.404;2023-07-09T00:12:54;96036.59;;;18.64;100.00
11676;BME280;5894;42.768;23.404;2023-07-09T00:15:25;96037.69;;;18.63;100.00
11676;BME280;5894;42.768;23.404;2023-07-09T00:17:53;96042.72;;;18.64;100.00
11676;BME280;5894;42.768;23.404;2023-07-09T00:20:20;96041.94;;;18.64;100.00
11676;BME280;5894;42.768;23.404;2023-07-09T00:22:48;96006.72;;;18.46;100.00
11676;BME280;5894;42.768;23.404;2023-07-09T00:25:18;96054.41;;;18.60;100.00
11676;BME280;5894;42.768;23.404;2023-07-09T00:27:46;96033.59;;;18.53;100.00
11676;BME280;5894;42.768;23.404;2023-07-09T00:30:19;96036.59;;;18.52;100.00
11676;BME280;5894;42.768;23.404;2023-07-09T00:32:48;96029.19;;;18.45;100.00
11676;BME280;5894;42.768;23.404;2023-07-09T00:35:17;95992.91;;;18.16;100.00
11676;BME280;5894;42.768;23.404;2023-07-09T00:37:45;96040.78;;;18.37;100.00
11676;BME280;5894;42.768;23.404;2023-07-09T00:40:18;96038.78;;;18.34;100.00
11676;BME280;5894;42.768;23.404;2023-07-09T00:42:47;96014.28;;;18.16;100.00
11676;BME280;5894;42.768;23.404;2023-07-09T00:45:20;96032.56;;;18.30;100.00
11676;BME280;5894;42.768;23.404;2023-07-09T00:47:54;96035.56;;;18.28;100.00
11676;BME280;5894;42.768;23.404;2023-07-09T00:50:34;96032.22;;;18.31;100.00
11676;BME280;5894;42.768;23.404;2023-07-09T00:53:08;96025.66;;;18.29;100.00
11676;BME280;5894;42.768;23.404;2023-07-09T00:55:40;96020.25;;;18.25;100.00
11676;BME280;5894;42.768;23.404;2023-07-09T00:58:13;96024.81;;;18.25;100.00
11676;BME280;5894;42.768;23.404;2023-07-09T01:00:46;95991.75;;;17.89;100.00
11676;BME280;5894;42.768;23.404;2023-07-09T01:03:21;96012.81;;;18.07;100.00
11676;BME280;5894;42.768;23.404;2023-07-09T01:05:52;96024.41;;;18.11;100.00
11676;BME280;5894;42.768;23.404;2023-07-09T01:08:21;96026.16;;;18.07;100.00
11676;BME280;5894;42.768;23.404;2023-07-09T01:10:48;96025.63;;;18.01;100.00
11676;BME280;5894;42.768;23.404;2023-07-09T01:13:16;96033.91;;;17.96;100.00
11676;BME280;5894;42.768;23.404;2023-07-09T01:15:45;96034.22;;;17.94;100.00
11676;BME280;5894;42.768;23.404;2023-07-09T01:18:12;96026.56;;;17.93;100.00
11676;BME280;5894;42.768;23.404;2023-07-09T01:20:42;96025.78;;;17.92;100.00
11676;BME280;5894;42.768;23.404;2023-07-09T01:23:10;96029.44;;;17.88;100.00
11676;BME280;5894;42.768;23.404;2023-07-09T01:25:42;96029.56;;;17.79;100.00
11676;BME280;5894;42.768;23.404;2023-07-09T01:28:10;96022.22;;;17.76;100.00
11676;BME280;5894;42.768;23.404;2023-07-09T01:30:40;96018.91;;;17.67;100.00
11676;BME280;5894;42.768;23.404;2023-07-09T01:33:07;96013.00;;;17.61;100.00
11676;BME280;5894;42.768;23.404;2023-07-09T01:35:37;96029.66;;;17.58;100.00
11676;BME280;5894;42.768;23.404;2023-07-09T01:38:06;96017.09;;;17.59;100.00
11676;BME280;5894;42.768;23.404;2023-07-09T01:40:36;96012.22;;;17.61;100.00
11676;BME280;5894;42.768;23.404;2023-07-09T01:43:04;96008.16;;;17.64;100.00
11676;BME280;5894;42.768;23.404;2023-07-09T01:45:34;96012.22;;;17.61;100.00
11676;BME280;5894;42.768;23.404;2023-07-09T01:48:02;96016.16;;;17.64;100.00
11676;BME280;5894;42.768;23.404;2023-07-09T01:50:29;96019.44;;;17.60;100.00
11676;BME280;5894;42.768;23.404;2023-07-09T01:52:57;96028.22;;;17.61;100.00
11676;BME280;5894;42.768;23.404;2023-07-09T01:55:25;96021.91;;;17.53;100.00
11676;BME280;5894;42.768;23.404;2023-07-09T01:57:53;96029.00;;;17.49;100.00
11676;BME280;5894;42.768;23.404;2023-07-09T02:00:20;96028.88;;;17.46;100.00
11676;BME280;5894;42.768;23.404;2023-07-09T02:02:47;96034.44;;;17.41;100.00
11676;BME280;5894;42.768;23.404;2023-07-09T02:05:17;96025.53;;;17.24;100.00
11676;BME280;5894;42.768;23.404;2023-07-09T02:07:44;96022.66;;;17.30;100.00
11676;BME280;5894;42.768;23.404;2023-07-09T02:10:15;96003.31;;;16.96;100.00
11676;BME280;5894;42.768;23.404;2023-07-09T02:12:43;96034.31;;;17.25;100.00
11676;BME280;5894;42.768;23.404;2023-07-09T02:15:12;96032.09;;;17.27;100.00
11676;BME280;5894;42.768;23.404;2023-07-09T02:17:39;96032.09;;;17.27;100.00
11676;BME280;5894;42.768;23.404;2023-07-09T02:20:07;96031.66;;;17.25;100.00
11676;BME280;5894;42.768;23.404;2023-07-09T02:22:35;96027.66;;;17.19;100.00
11676;BME280;5894;42.768;23.404;2023-07-09T02:25:03;96022.44;;;17.22;100.00
11676;BME280;5894;42.768;23.404;2023-07-09T02:27:32;96030.53;;;17.14;100.00
11676;BME280;5894;42.768;23.404;2023-07-09T02:29:59;96032.63;;;17.08;100.00
11676;BME280;5894;42.768;23.404;2023-07-09T02:32:27;96041.63;;;17.04;100.00
11676;BME280;5894;42.768;23.404;2023-07-09T02:34:55;96055.03;;;16.95;100.00
11676;BME280;5894;42.768;23.404;2023-07-09T02:37:25;96046.81;;;16.88;100.00
11676;BME280;5894;42.768;23.404;2023-07-09T02:39:52;96040.91;;;16.82;100.00
11676;BME280;5894;42.768;23.404;2023-07-09T02:42:20;96058.13;;;16.85;100.00
11676;BME280;5894;42.768;23.404;2023-07-09T02:44:49;96061.56;;;16.85;100.00
11676;BME280;5894;42.768;23.404;2023-07-09T02:47:18;96055.91;;;16.87;100.00
11676;BME280;5894;42.768;23.404;2023-07-09T02:49:47;96061.22;;;16.87;100.00
11676;BME280;5894;42.768;23.404;2023-07-09T02:52:14;96063.91;;;16.87;100.00
11676;BME280;5894;42.768;23.404;2023-07-09T02:54:41;96060.31;;;16.83;100.00
11676;BME280;5894;42.768;23.404;2023-07-09T02:57:08;96069.78;;;16.80;100.00
11676;BME280;5894;42.768;23.404;2023-07-09T02:59:35;96071.75;;;16.83;100.00
11676;BME280;5894;42.768;23.404;2023-07-09T03:02:03;96075.53;;;16.82;100.00
11676;BME280;5894;42.768;23.404;2023-07-09T03:04:30;96074.00;;;16.81;100.00
11676;BME280;5894;42.768;23.404;2023-07-09T03:06:59;96079.31;;;16.81;100.00
11676;BME280;5894;42.768;23.404;2023-07-09T03:09:26;96081.97;;;16.81;100.00
11676;BME280;5894;42.768;23.404;2023-07-09T03:11:54;96084.28;;;16.83;100.00
11676;BME280;5894;42.768;23.404;2023-07-09T03:14:21;96080.66;;;16.87;100.00
11676;BME280;5894;42.768;23.404;2023-07-09T03:16:48;96085.66;;;16.89;100.00
11676;BME280;5894;42.768;23.404;2023-07-09T03:19:15;96082.47;;;16.96;100.00
11676;BME280;5894;42.768;23.404;2023-07-09T03:21:42;96080.19;;;16.85;100.00
11676;BME280;5894;42.768;23.404;2023-07-09T03:24:10;96082.09;;;16.85;100.00
11676;BME280;5894;42.768;23.404;2023-07-09T03:26:44;96092.31;;;16.95;100.00
11676;BME280;5894;42.768;23.404;2023-07-09T03:29:11;96082.69;;;16.91;100.00
11676;BME280;5894;42.768;23.404;2023-07-09T03:31:38;96079.69;;;16.92;100.00
11676;BME280;5894;42.768;23.404;2023-07-09T03:34:05;96078.91;;;16.92;100.00
11676;BME280;5894;42.768;23.404;2023-07-09T03:36:32;96088.44;;;16.93;100.00
11676;BME280;5894;42.768;23.404;2023-07-09T03:39:00;96081.22;;;16.93;100.00
11676;BME280;5894;42.768;23.404;2023-07-09T03:41:29;96081.66;;;16.95;100.00
11676;BME280;5894;42.768;23.404;2023-07-09T03:43:56;96080.69;;;17.00;100.00
11676;BME280;5894;42.768;23.404;2023-07-09T03:46:23;96085.25;;;16.99;100.00
11676;BME280;5894;42.768;23.404;2023-07-09T03:48:50;96081.81;;;16.99;100.00
11676;BME280;5894;42.768;23.404;2023-07-09T03:51:17;96084.94;;;17.01;100.00
11676;BME280;5894;42.768;23.404;2023-07-09T03:53:44;96088.00;;;17.03;100.00
11676;BME280;5894;42.768;23.404;2023-07-09T03:56:11;96093.16;;;17.08;100.00
11676;BME280;5894;42.768;23.404;2023-07-09T03:58:40;96091.41;;;17.12;100.00
11676;BME280;5894;42.768;23.404;2023-07-09T04:01:07;96096.81;;;17.15;100.00
11676;BME280;5894;42.768;23.404;2023-07-09T04:03:34;96062.47;;;16.90;100.00
11676;BME280;5894;42.768;23.404;2023-07-09T04:06:01;96106.50;;;17.20;100.00
11676;BME280;5894;42.768;23.404;2023-07-09T04:08:28;96100.72;;;17.18;100.00
11676;BME280;5894;42.768;23.404;2023-07-09T04:10:59;96119.19;;;17.23;100.00
11676;BME280;5894;42.768;23.404;2023-07-09T04:13:26;96111.50;;;17.21;100.00
11676;BME280;5894;42.768;23.404;2023-07-09T04:15:55;96103.06;;;17.19;100.00
11676;BME280;5894;42.768;23.404;2023-07-09T04:18:22;96118.50;;;17.26;100.00
11676;BME280;5894;42.768;23.404;2023-07-09T04:20:50;96117.41;;;17.27;100.00
11676;BME280;5894;42.768;23.404;2023-07-09T04:23:18;96128.84;;;17.28;100.00
11676;BME280;5894;42.768;23.404;2023-07-09T04:25:45;96126.63;;;17.30;100.00
11676;BME280;5894;42.768;23.404;2023-07-09T04:28:12;96120.19;;;17.31;100.00
11676;BME280;5894;42.768;23.404;2023-07-09T04:30:45;96127.88;;;17.32;100.00
11676;BME280;5894;42.768;23.404;2023-07-09T04:33:15;96124.88;;;17.34;100.00
11676;BME280;5894;42.768;23.404;2023-07-09T04:35:43;96126.63;;;17.30;100.00
11676;BME280;5894;42.768;23.404;2023-07-09T04:38:11;96133.63;;;17.34;100.00
11676;BME280;5894;42.768;23.404;2023-07-09T04:40:38;96128.19;;;17.31;100.00
11676;BME280;5894;42.768;23.404;2023-07-09T04:43:05;96128.06;;;17.27;100.00
11676;BME280;5894;42.768;23.404;2023-07-09T04:45:33;96141.06;;;17.29;100.00
11676;BME280;5894;42.768;23.404;2023-07-09T04:48:00;96125.19;;;17.32;100.00
11676;BME280;5894;42.768;23.404;2023-07-09T04:50:29;96120.66;;;17.33;100.00
11676;BME280;5894;42.768;23.404;2023-07-09T04:52:56;96132.97;;;17.37;100.00
11676;BME280;5894;42.768;23.404;2023-07-09T04:55:23;96130.53;;;17.32;100.00
11676;BME280;5894;42.768;23.404;2023-07-09T04:57:50;96131.19;;;17.29;100.00
11676;BME280;5894;42.768;23.404;2023-07-09T05:00:17;96133.25;;;17.23;100.00
11676;BME280;5894;42.768;23.404;2023-07-09T05:02:44;96132.50;;;17.23;100.00
11676;BME280;5894;42.768;23.404;2023-07-09T05:05:11;96132.16;;;17.24;100.00
11676;BME280;5894;42.768;23.404;2023-07-09T05:07:40;96128.97;;;17.31;100.00
11676;BME280;5894;42.768;23.404;2023-07-09T05:10:07;96130.97;;;17.34;100.00
11676;BME280;5894;42.768;23.404;2023-07-09T05:12:35;96131.88;;;17.38;100.00
11676;BME280;5894;42.768;23.404;2023-07-09T05:15:02;96129.00;;;17.43;100.00
11676;BME280;5894;42.768;23.404;2023-07-09T05:17:29;96133.13;;;17.53;100.00
11676;BME280;5894;42.768;23.404;2023-07-09T05:19:56;96128.59;;;17.66;100.00
11676;BME280;5894;42.768;23.404;2023-07-09T05:22:23;96134.19;;;17.85;100.00
11676;BME280;5894;42.768;23.404;2023-07-09T05:24:51;96133.63;;;18.04;100.00
11676;BME280;5894;42.768;23.404;2023-07-09T05:27:18;96133.50;;;18.24;100.00
11676;BME280;5894;42.768;23.404;2023-07-09T05:29:45;96139.91;;;18.48;100.00
11676;BME280;5894;42.768;23.404;2023-07-09T05:32:12;96132.50;;;18.69;100.00
11676;BME280;5894;42.768;23.404;2023-07-09T05:34:39;96125.34;;;18.85;100.00
11676;BME280;5894;42.768;23.404;2023-07-09T05:37:06;96134.78;;;19.11;100.00
11676;BME280;5894;42.768;23.404;2023-07-09T05:39:34;96141.06;;;19.30;100.00
11676;BME280;5894;42.768;23.404;2023-07-09T05:42:02;96135.38;;;19.48;100.00
11676;BME280;5894;42.768;23.404;2023-07-09T05:44:29;96129.28;;;19.63;100.00
11676;BME280;5894;42.768;23.404;2023-07-09T05:46:58;96125.84;;;19.78;100.00
11676;BME280;5894;42.768;23.404;2023-07-09T05:49:25;96135.41;;;19.95;100.00
11676;BME280;5894;42.768;23.404;2023-07-09T05:51:52;96146.53;;;20.12;100.00
11676;BME280;5894;42.768;23.404;2023-07-09T05:54:19;96141.50;;;20.27;100.00
11676;BME280;5894;42.768;23.404;2023-07-09T05:56:46;96134.59;;;20.41;100.00
11676;BME280;5894;42.768;23.404;2023-07-09T05:59:15;96142.16;;;20.55;100.00
11676;BME280;5894;42.768;23.404;2023-07-09T06:01:42;96142.00;;;20.67;100.00
11676;BME280;5894;42.768;23.404;2023-07-09T06:04:09;96142.31;;;20.81;100.00
11676;BME280;5894;42.768;23.404;2023-07-09T06:06:37;96146.31;;;20.91;100.00
11676;BME280;5894;42.768;23.404;2023-07-09T06:09:04;96138.41;;;20.98;100.00
11676;BME280;5894;42.768;23.404;2023-07-09T06:11:31;96138.25;;;21.10;100.00
11676;BME280;5894;42.768;23.404;2023-07-09T06:13:59;96141.25;;;21.24;100.00
11676;BME280;5894;42.768;23.404;2023-07-09T06:16:27;96133.81;;;21.37;100.00
11676;BME280;5894;42.768;23.404;2023-07-09T06:18:54;96136.31;;;21.49;100.00
11676;BME280;5894;42.768;23.404;2023-07-09T06:21:21;96131.44;;;21.55;100.00
11676;BME280;5894;42.768;23.404;2023-07-09T06:23:48;96131.50;;;21.58;100.00
11676;BME280;5894;42.768;23.404;2023-07-09T06:26:15;96139.94;;;21.60;100.00
11676;BME280;5894;42.768;23.404;2023-07-09T06:28:42;96140.09;;;21.68;100.00
11676;BME280;5894;42.768;23.404;2023-07-09T06:31:09;96135.59;;;21.75;100.00
11676;BME280;5894;42.768;23.404;2023-07-09T06:33:37;96133.16;;;21.89;100.00
11676;BME280;5894;42.768;23.404;2023-07-09T06:36:05;96130.16;;;21.94;100.00
11676;BME280;5894;42.768;23.404;2023-07-09T06:38:32;96129.22;;;22.06;100.00
11676;BME280;5894;42.768;23.404;2023-07-09T06:40:59;96136.38;;;22.21;100.00
11676;BME280;5894;42.768;23.404;2023-07-09T06:43:26;96129.25;;;22.36;100.00
11676;BME280;5894;42.768;23.404;2023-07-09T06:45:56;96129.75;;;22.45;97.16
11676;BME280;5894;42.768;23.404;2023-07-09T06:48:24;96129.19;;;22.59;97.52
11676;BME280;5894;42.768;23.404;2023-07-09T06:50:54;96127.09;;;22.75;96.24
11676;BME280;5894;42.768;23.404;2023-07-09T06:53:22;96127.28;;;22.89;91.25
11676;BME280;5894;42.768;23.404;2023-07-09T06:55:49;96130.75;;;22.90;93.03
11676;BME280;5894;42.768;23.404;2023-07-09T06:58:16;96131.00;;;23.11;92.86
11676;BME280;5894;42.768;23.404;2023-07-09T07:00:43;96126.16;;;23.27;94.36
11676;BME280;5894;42.768;23.404;2023-07-09T07:03:11;96115.59;;;23.49;95.67
11676;BME280;5894;42.768;23.404;2023-07-09T07:05:43;96122.69;;;23.64;94.21
11676;BME280;5894;42.768;23.404;2023-07-09T07:08:13;96122.53;;;23.90;92.37
11676;BME280;5894;42.768;23.404;2023-07-09T07:10:40;96120.75;;;24.12;90.75
11676;BME280;5894;42.768;23.404;2023-07-09T07:13:08;96125.16;;;24.34;89.95
11676;BME280;5894;42.768;23.404;2023-07-09T07:15:36;96121.81;;;24.55;85.87
11676;BME280;5894;42.768;23.404;2023-07-09T07:18:03;96122.25;;;24.71;85.94
11676;BME280;5894;42.768;23.404;2023-07-09T07:20:31;96128.13;;;24.87;82.07
11676;BME280;5894;42.768;23.404;2023-07-09T07:22:58;96114.75;;;25.09;82.50
11676;BME280;5894;42.768;23.404;2023-07-09T07:25:27;96107.84;;;25.29;83.79
11676;BME280;5894;42.768;23.404;2023-07-09T07:27:55;96107.09;;;25.46;80.14
11676;BME280;5894;42.768;23.404;2023-07-09T07:30:22;96104.84;;;25.70;76.10
11676;BME280;5894;42.768;23.404;2023-07-09T07:32:49;96091.31;;;25.70;66.64
11676;BME280;5894;42.768;23.404;2023-07-09T07:35:16;96102.88;;;25.99;69.52
11676;BME280;5894;42.768;23.404;2023-07-09T07:37:44;96096.28;;;26.17;72.18
11676;BME280;5894;42.768;23.404;2023-07-09T07:40:11;96095.47;;;26.49;73.62
11676;BME280;5894;42.768;23.404;2023-07-09T07:42:40;96091.91;;;26.73;68.43
11676;BME280;5894;42.768;23.404;2023-07-09T07:45:08;96090.38;;;26.72;64.13
11676;BME280;5894;42.768;23.404;2023-07-09T07:47:35;96091.50;;;26.85;67.59
11676;BME280;5894;42.768;23.404;2023-07-09T07:50:02;96095.28;;;27.09;66.44
11676;BME280;5894;42.768;23.404;2023-07-09T07:52:29;96092.84;;;27.29;68.50
11676;BME280;5894;42.768;23.404;2023-07-09T07:54:57;96088.78;;;27.58;68.49
11676;BME280;5894;42.768;23.404;2023-07-09T07:57:25;96096.34;;;27.81;67.07
11676;BME280;5894;42.768;23.404;2023-07-09T07:59:54;96089.94;;;28.05;66.37
11676;BME280;5894;42.768;23.404;2023-07-09T08:02:24;96089.81;;;28.23;61.77
11676;BME280;5894;42.768;23.404;2023-07-09T08:04:51;96090.38;;;28.41;64.63
11676;BME280;5894;42.768;23.404;2023-07-09T08:07:18;96085.75;;;28.72;64.77
11676;BME280;5894;42.768;23.404;2023-07-09T08:09:46;96093.16;;;29.02;60.73
11676;BME280;5894;42.768;23.404;2023-07-09T08:12:14;96090.56;;;29.22;58.46
11676;BME280;5894;42.768;23.404;2023-07-09T08:14:42;96082.50;;;29.45;58.11
11676;BME280;5894;42.768;23.404;2023-07-09T08:17:13;96083.09;;;29.80;58.39
11676;BME280;5894;42.768;23.404;2023-07-09T08:19:47;96076.81;;;30.10;55.92
11676;BME280;5894;42.768;23.404;2023-07-09T08:22:15;96080.34;;;30.30;53.63
11676;BME280;5894;42.768;23.404;2023-07-09T08:24:42;96068.13;;;30.38;53.50
11676;BME280;5894;42.768;23.404;2023-07-09T08:27:09;96076.38;;;30.54;54.20
11676;BME280;5894;42.768;23.404;2023-07-09T08:29:36;96069.97;;;30.64;52.29
11676;BME280;5894;42.768;23.404;2023-07-09T08:32:07;96075.34;;;30.68;50.17
11676;BME280;5894;42.768;23.404;2023-07-09T08:34:36;96070.16;;;30.93;50.49
11676;BME280;5894;42.768;23.404;2023-07-09T08:37:05;96068.03;;;31.21;50.56
11676;BME280;5894;42.768;23.404;2023-07-09T08:39:33;96072.97;;;31.26;49.82
11676;BME280;5894;42.768;23.404;2023-07-09T08:42:03;96075.81;;;31.55;53.37
11676;BME280;5894;42.768;23.404;2023-07-09T08:44:44;96072.50;;;31.80;50.76
11676;BME280;5894;42.768;23.404;2023-07-09T08:47:20;96061.72;;;31.76;44.69
11676;BME280;5894;42.768;23.404;2023-07-09T08:49:57;96068.78;;;31.73;46.43
11676;BME280;5894;42.768;23.404;2023-07-09T08:52:30;96056.56;;;31.78;45.36
11676;BME280;5894;42.768;23.404;2023-07-09T08:55:03;96060.00;;;31.82;50.62
11676;BME280;5894;42.768;23.404;2023-07-09T08:57:35;96065.44;;;31.82;49.51
11676;BME280;5894;42.768;23.404;2023-07-09T09:00:10;96075.84;;;31.87;49.47
11676;BME280;5894;42.768;23.404;2023-07-09T09:02:46;96070.22;;;31.78;50.44
11676;BME280;5894;42.768;23.404;2023-07-09T09:05:18;96063.75;;;31.56;48.81
11676;BME280;5894;42.768;23.404;2023-07-09T09:07:51;96058.97;;;31.44;50.37
11676;BME280;5894;42.768;23.404;2023-07-09T09:10:25;96058.53;;;31.45;51.98
11676;BME280;5894;42.768;23.404;2023-07-09T09:13:05;96058.53;;;31.45;50.93
11676;BME280;5894;42.768;23.404;2023-07-09T09:15:32;96036.88;;;31.38;52.19
11676;BME280;5894;42.768;23.404;2023-07-09T09:18:14;96058.91;;;31.27;51.57
11676;BME280;5894;42.768;23.404;2023-07-09T09:20:48;96020.06;;;30.51;47.97
11676;BME280;5894;42.768;23.404;2023-07-09T09:23:15;96068.09;;;30.61;50.01
11676;BME280;5894;42.768;23.404;2023-07-09T09:25:47;96056.75;;;30.43;49.33
11676;BME280;5894;42.768;23.404;2023-07-09T09:28:16;96054.47;;;30.42;51.19
11676;BME280;5894;42.768;23.404;2023-07-09T09:30:43;96058.56;;;30.30;52.85
11676;BME280;5894;42.768;23.404;2023-07-09T09:33:11;96048.34;;;30.14;53.52
11676;BME280;5894;42.768;23.404;2023-07-09T09:35:40;96048.13;;;30.05;53.37
11676;BME280;5894;42.768;23.404;2023-07-09T09:38:12;96045.31;;;29.89;55.10
11676;BME280;5894;42.768;23.404;2023-07-09T09:40:40;96042.19;;;29.67;56.44
11676;BME280;5894;42.768;23.404;2023-07-09T09:43:13;96036.91;;;29.56;56.06
11676;BME280;5894;42.768;23.404;2023-07-09T09:45:43;96052.75;;;29.35;56.54
11676;BME280;5894;42.768;23.404;2023-07-09T09:48:14;96044.72;;;28.97;54.45
11676;BME280;5894;42.768;23.404;2023-07-09T09:50:42;96032.84;;;28.88;54.03
11676;BME280;5894;42.768;23.404;2023-07-09T09:53:18;96029.78;;;28.86;55.59
11676;BME280;5894;42.768;23.404;2023-07-09T09:55:47;96029.94;;;28.71;55.03
11676;BME280;5894;42.768;23.404;2023-07-09T09:58:15;96035.78;;;28.70;56.91
11676;BME280;5894;42.768;23.404;2023-07-09T10:00:48;96026.69;;;28.53;53.15
11676;BME280;5894;42.768;23.404;2023-07-09T10:03:15;96023.28;;;28.45;53.98
11676;BME280;5894;42.768;23.404;2023-07-09T10:05:45;96022.69;;;28.31;52.61
11676;BME280;5894;42.768;23.404;2023-07-09T10:08:21;96014.38;;;28.07;54.66
11676;BME280;5894;42.768;23.404;2023-07-09T10:10:57;96021.31;;;28.12;56.98
11676;BME280;5894;42.768;23.404;2023-07-09T10:13:30;96024.44;;;28.10;58.26
11676;BME280;5894;42.768;23.404;2023-07-09T10:16:05;96012.84;;;28.06;60.80
11676;BME280;5894;42.768;23.404;2023-07-09T10:18:43;96016.31;;;28.07;60.12
11676;BME280;5894;42.768;23.404;2023-07-09T10:21:19;96017.19;;;28.00;54.42
11676;BME280;5894;42.768;23.404;2023-07-09T10:23:58;96008.38;;;27.89;58.47
11676;BME280;5894;42.768;23.404;2023-07-09T10:26:32;96021.13;;;27.92;60.73
11676;BME280;5894;42.768;23.404;2023-07-09T10:29:30;96012.69;;;27.83;54.56
11676;BME280;5894;42.768;23.404;2023-07-09T10:32:09;96006.50;;;27.83;58.24
11676;BME280;5894;42.768;23.404;2023-07-09T10:34:45;96009.66;;;27.77;60.44
11676;BME280;5894;42.768;23.404;2023-07-09T10:37:31;96001.91;;;27.76;60.89
11676;BME280;5894;42.768;23.404;2023-07-09T10:40:08;96008.69;;;27.57;60.32
11676;BME280;5894;42.768;23.404;2023-07-09T10:42:40;96003.19;;;27.64;59.99
11676;BME280;5894;42.768;23.404;2023-07-09T10:45:12;95996.97;;;27.67;61.12
11676;BME280;5894;42.768;23.404;2023-07-09T10:47:43;95997.06;;;27.57;61.14
11676;BME280;5894;42.768;23.404;2023-07-09T10:50:15;95987.78;;;27.58;60.40
11676;BME280;5894;42.768;23.404;2023-07-09T10:52:46;95993.56;;;27.60;61.32
11676;BME280;5894;42.768;23.404;2023-07-09T10:55:20;95986.16;;;27.64;56.14
11676;BME280;5894;42.768;23.404;2023-07-09T10:57:55;95985.03;;;27.61;56.37
11676;BME280;5894;42.768;23.404;2023-07-09T11:00:31;95989.25;;;27.62;60.11
11676;BME280;5894;42.768;23.404;2023-07-09T11:03:01;96000.09;;;27.62;60.82
11676;BME280;5894;42.768;23.404;2023-07-09T11:05:30;95989.63;;;27.68;63.15
11676;BME280;5894;42.768;23.404;2023-07-09T11:08:01;95993.56;;;27.60;61.41
11676;BME280;5894;42.768;23.404;2023-07-09T11:10:32;95987.03;;;27.50;61.80
11676;BME280;5894;42.768;23.404;2023-07-09T11:13:03;95990.09;;;27.52;58.96
11676;BME280;5894;42.768;23.404;2023-07-09T11:15:35;95982.72;;;27.60;60.76
11676;BME280;5894;42.768;23.404;2023-07-09T11:18:05;95983.84;;;27.62;62.03
11676;BME280;5894;42.768;23.404;2023-07-09T11:20:34;95982.25;;;27.68;61.38
11676;BME280;5894;42.768;23.404;2023-07-09T11:23:03;95957.59;;;27.56;62.46
11676;BME280;5894;42.768;23.404;2023-07-09T11:25:44;95985.94;;;27.85;61.86
11676;BME280;5894;42.768;23.404;2023-07-09T11:28:11;95987.00;;;27.95;61.33
11676;BME280;5894;42.768;23.404;2023-07-09T11:30:49;95990.06;;;28.00;58.29
11676;BME280;5894;42.768;23.404;2023-07-09T11:33:19;95980.38;;;28.03;56.00
11676;BME280;5894;42.768;23.404;2023-07-09T11:35:49;95985.25;;;28.15;61.40
11676;BME280;5894;42.768;23.404;2023-07-09T11:38:18;95980.50;;;28.26;60.36
11676;BME280;5894;42.768;23.404;2023-07-09T11:40:48;95971.84;;;28.35;59.53
11676;BME280;5894;42.768;23.404;2023-07-09T11:43:31;95979.06;;;28.48;60.23
11676;BME280;5894;42.768;23.404;2023-07-09T11:46:10;95990.66;;;28.53;57.84
11676;BME280;5894;42.768;23.404;2023-07-09T11:48:39;95982.00;;;28.61;57.14
11676;BME280;5894;42.768;23.404;2023-07-09T11:51:12;95972.03;;;28.85;56.84
11676;BME280;5894;42.768;23.404;2023-07-09T11:53:44;95970.31;;;28.95;50.94
11676;BME280;5894;42.768;23.404;2023-07-09T11:56:18;95968.00;;;28.93;56.49
11676;BME280;5894;42.768;23.404;2023-07-09T11:58:49;95969.03;;;29.03;56.19
11676;BME280;5894;42.768;23.404;2023-07-09T12:01:19;95969.84;;;29.27;58.06
11676;BME280;5894;42.768;23.404;2023-07-09T12:03:47;95967.31;;;29.39;54.89
11676;BME280;5894;42.768;23.404;2023-07-09T12:06:18;95964.81;;;29.72;54.92
11676;BME280;5894;42.768;23.404;2023-07-09T12:08:48;95965.16;;;29.97;55.06
11676;BME280;5894;42.768;23.404;2023-07-09T12:11:23;95955.72;;;30.21;52.88
11676;BME280;5894;42.768;23.404;2023-07-09T12:13:51;95960.72;;;30.43;51.47
11676;BME280;5894;42.768;23.404;2023-07-09T12:16:24;95959.81;;;30.69;51.63
11676;BME280;5894;42.768;23.404;2023-07-09T12:18:51;95963.00;;;31.00;50.39
11676;BME280;5894;42.768;23.404;2023-07-09T12:21:19;95958.63;;;31.22;50.41
11676;BME280;5894;42.768;23.404;2023-07-09T12:23:46;95950.09;;;31.36;48.88
11676;BME280;5894;42.768;23.404;2023-07-09T12:26:16;95947.03;;;31.51;49.96
11676;BME280;5894;42.768;23.404;2023-07-09T12:28:49;95946.56;;;31.85;47.71
11676;BME280;5894;42.768;23.404;2023-07-09T12:31:16;95952.56;;;31.92;47.74
11676;BME280;5894;42.768;23.404;2023-07-09T12:33:48;95951.78;;;32.08;46.57
11676;BME280;5894;42.768;23.404;2023-07-09T12:36:17;95954.25;;;32.31;46.27
11676;BME280;5894;42.768;23.404;2023-07-09T12:38:46;95955.16;;;32.54;46.67
11676;BME280;5894;42.768;23.404;2023-07-09T12:41:19;95943.97;;;32.77;45.42
11676;BME280;5894;42.768;23.404;2023-07-09T12:43:48;95944.84;;;32.87;44.63
11676;BME280;5894;42.768;23.404;2023-07-09T12:46:16;95947.00;;;32.92;43.90
11676;BME280;5894;42.768;23.404;2023-07-09T12:48:43;95924.75;;;32.80;45.27
11676;BME280;5894;42.768;23.404;2023-07-09T12:51:16;95943.53;;;32.91;45.84
11676;BME280;5894;42.768;23.404;2023-07-09T12:53:45;95930.94;;;32.68;41.14
11676;BME280;5894;42.768;23.404;2023-07-09T12:56:15;95936.78;;;32.29;41.53
11676;BME280;5894;42.768;23.404;2023-07-09T12:58:42;95933.41;;;32.37;45.30
11676;BME280;5894;42.768;23.404;2023-07-09T13:01:16;95892.06;;;31.97;45.17
11676;BME280;5894;42.768;23.404;2023-07-09T13:03:53;95933.31;;;32.12;44.98
11676;BME280;5894;42.768;23.404;2023-07-09T13:06:27;95934.75;;;32.17;45.60